sensor_id;sensor_type;location;lat;lon;timestamp;P1;durP1;ratioP1;P2;durP2;ratioP2
5052;SDS011;2545;50.892;5.740;2023-03-19T00:01:48;6.27;;;3.67;;
5052;SDS011;2545;50.892;5.740;2023-03-19T00:04:13;7.17;;;3.90;;
5052;SDS011;2545;50.892;5.740;2023-03-19T00:06:40;8.90;;;4.70;;
5052;SDS011;2545;50.892;5.740;2023-03-19T00:09:06;8.57;;;4.00;;
5052;SDS011;2545;50.892;5.740;2023-03-19T00:11:31;6.80;;;4.13;;
5052;SDS011;2545;50.892;5.740;2023-03-19T00:13:57;5.60;;;3.87;;
5052;SDS011;2545;50.892;5.740;2023-03-19T00:16:22;6.70;;;4.00;;
5052;SDS011;2545;50.892;5.740;2023-03-19T00:18:47;6.00;;;3.87;;
5052;SDS011;2545;50.892;5.740;2023-03-19T00:21:13;6.37;;;3.23;;
5052;SDS011;2545;50.892;5.740;2023-03-19T00:23:38;8.20;;;3.50;;
5052;SDS011;2545;50.892;5.740;2023-03-19T00:26:04;6.63;;;3.70;;
5052;SDS011;2545;50.892;5.740;2023-03-19T00:28:29;5.10;;;3.27;;
5052;SDS011;2545;50.892;5.740;2023-03-19T00:30:55;4.50;;;3.33;;
5052;SDS011;2545;50.892;5.740;2023-03-19T00:33:21;5.70;;;3.63;;
5052;SDS011;2545;50.892;5.740;2023-03-19T00:35:46;8.80;;;3.57;;
5052;SDS011;2545;50.892;5.740;2023-03-19T00:38:11;5.33;;;3.30;;
5052;SDS011;2545;50.892;5.740;2023-03-19T00:40:37;7.57;;;4.53;;
5052;SDS011;2545;50.892;5.740;2023-03-19T00:43:02;8.33;;;4.73;;
5052;SDS011;2545;50.892;5.740;2023-03-19T00:45:28;7.47;;;3.87;;
5052;SDS011;2545;50.892;5.740;2023-03-19T00:47:54;5.67;;;4.70;;
5052;SDS011;2545;50.892;5.740;2023-03-19T00:50:21;9.07;;;4.63;;
5052;SDS011;2545;50.892;5.740;2023-03-19T00:52:46;8.63;;;4.53;;
5052;SDS011;2545;50.892;5.740;2023-03-19T00:55:12;16.47;;;5.27;;
5052;SDS011;2545;50.892;5.740;2023-03-19T00:57:37;15.53;;;5.93;;
5052;SDS011;2545;50.892;5.740;2023-03-19T01:00:02;7.80;;;4.60;;
5052;SDS011;2545;50.892;5.740;2023-03-19T01:02:29;12.70;;;4.70;;
5052;SDS011;2545;50.892;5.740;2023-03-19T01:04:56;12.17;;;4.37;;
5052;SDS011;2545;50.892;5.740;2023-03-19T01:07:21;6.50;;;4.17;;
5052;SDS011;2545;50.892;5.740;2023-03-19T01:09:46;5.17;;;3.97;;
5052;SDS011;2545;50.892;5.740;2023-03-19T01:12:11;5.10;;;3.60;;
5052;SDS011;2545;50.892;5.740;2023-03-19T01:14:37;5.27;;;3.33;;
5052;SDS011;2545;50.892;5.740;2023-03-19T01:17:02;5.53;;;3.80;;
5052;SDS011;2545;50.892;5.740;2023-03-19T01:19:28;8.37;;;3.20;;
5052;SDS011;2545;50.892;5.740;2023-03-19T01:21:54;6.37;;;3.63;;
5052;SDS011;2545;50.892;5.740;2023-03-19T01:24:19;8.87;;;3.90;;
5052;SDS011;2545;50.892;5.740;2023-03-19T01:26:45;7.67;;;4.10;;
5052;SDS011;2545;50.892;5.740;2023-03-19T01:29:10;7.03;;;4.00;;
5052;SDS011;2545;50.892;5.740;2023-03-19T01:31:35;6.93;;;3.50;;
5052;SDS011;2545;50.892;5.740;2023-03-19T01:34:01;6.10;;;3.77;;
5052;SDS011;2545;50.892;5.740;2023-03-19T01:36:27;5.90;;;3.23;;
5052;SDS011;2545;50.892;5.740;2023-03-19T01:38:53;5.63;;;3.17;;
5052;SDS011;2545;50.892;5.740;2023-03-19T01:41:19;6.50;;;3.33;;
5052;SDS011;2545;50.892;5.740;2023-03-19T01:43:44;8.60;;;4.20;;
5052;SDS011;2545;50.892;5.740;2023-03-19T01:46:15;14.40;;;4.20;;
5052;SDS011;2545;50.892;5.740;2023-03-19T01:48:54;8.87;;;3.87;;
5052;SDS011;2545;50.892;5.740;2023-03-19T01:51:24;6.63;;;3.77;;
5052;SDS011;2545;50.892;5.740;2023-03-19T01:53:53;6.57;;;4.27;;
5052;SDS011;2545;50.892;5.740;2023-03-19T01:56:23;7.07;;;4.53;;
5052;SDS011;2545;50.892;5.740;2023-03-19T01:58:55;4.60;;;3.60;;
5052;SDS011;2545;50.892;5.740;2023-03-19T02:01:25;5.07;;;3.67;;
5052;SDS011;2545;50.892;5.740;2023-03-19T02:03:52;11.47;;;3.70;;
5052;SDS011;2545;50.892;5.740;2023-03-19T02:06:18;8.53;;;4.90;;
5052;SDS011;2545;50.892;5.740;2023-03-19T02:08:45;8.20;;;3.87;;
5052;SDS011;2545;50.892;5.740;2023-03-19T02:11:11;11.70;;;4.43;;
5052;SDS011;2545;50.892;5.740;2023-03-19T02:13:37;9.13;;;4.60;;
5052;SDS011;2545;50.892;5.740;2023-03-19T02:16:03;5.70;;;3.60;;
5052;SDS011;2545;50.892;5.740;2023-03-19T02:18:28;9.90;;;3.70;;
5052;SDS011;2545;50.892;5.740;2023-03-19T02:21:05;8.40;;;3.80;;
5052;SDS011;2545;50.892;5.740;2023-03-19T02:23:46;4.73;;;3.60;;
5052;SDS011;2545;50.892;5.740;2023-03-19T02:26:20;10.40;;;3.70;;
5052;SDS011;2545;50.892;5.740;2023-03-19T02:28:48;5.97;;;3.93;;
5052;SDS011;2545;50.892;5.740;2023-03-19T02:31:16;8.83;;;4.03;;
5052;SDS011;2545;50.892;5.740;2023-03-19T02:33:42;8.97;;;3.90;;
5052;SDS011;2545;50.892;5.740;2023-03-19T02:36:13;8.93;;;4.30;;
5052;SDS011;2545;50.892;5.740;2023-03-19T02:38:41;8.63;;;5.00;;
5052;SDS011;2545;50.892;5.740;2023-03-19T02:41:09;4.33;;;3.37;;
5052;SDS011;2545;50.892;5.740;2023-03-19T02:43:35;8.40;;;4.10;;
5052;SDS011;2545;50.892;5.740;2023-03-19T02:46:03;10.03;;;4.93;;
5052;SDS011;2545;50.892;5.740;2023-03-19T02:48:32;6.67;;;4.20;;
5052;SDS011;2545;50.892;5.740;2023-03-19T02:50:57;10.83;;;3.70;;
5052;SDS011;2545;50.892;5.740;2023-03-19T02:53:23;5.87;;;3.50;;
5052;SDS011;2545;50.892;5.740;2023-03-19T02:55:48;5.60;;;3.77;;
5052;SDS011;2545;50.892;5.740;2023-03-19T02:58:14;6.27;;;3.60;;
5052;SDS011;2545;50.892;5.740;2023-03-19T03:00:40;6.93;;;3.70;;
5052;SDS011;2545;50.892;5.740;2023-03-19T03:03:06;5.57;;;3.47;;
5052;SDS011;2545;50.892;5.740;2023-03-19T03:05:31;6.40;;;3.33;;
5052;SDS011;2545;50.892;5.740;2023-03-19T03:07:57;7.90;;;3.83;;
5052;SDS011;2545;50.892;5.740;2023-03-19T03:10:22;5.63;;;3.93;;
5052;SDS011;2545;50.892;5.740;2023-03-19T03:12:48;3.80;;;3.40;;
5052;SDS011;2545;50.892;5.740;2023-03-19T03:15:13;9.70;;;2.73;;
5052;SDS011;2545;50.892;5.740;2023-03-19T03:17:39;7.73;;;3.60;;
5052;SDS011;2545;50.892;5.740;2023-03-19T03:20:07;6.17;;;3.63;;
5052;SDS011;2545;50.892;5.740;2023-03-19T03:22:34;4.50;;;3.53;;
5052;SDS011;2545;50.892;5.740;2023-03-19T03:24:59;4.33;;;3.07;;
5052;SDS011;2545;50.892;5.740;2023-03-19T03:27:25;7.10;;;3.40;;
5052;SDS011;2545;50.892;5.740;2023-03-19T03:29:51;3.97;;;3.57;;
5052;SDS011;2545;50.892;5.740;2023-03-19T03:32:16;3.40;;;3.00;;
5052;SDS011;2545;50.892;5.740;2023-03-19T03:34:41;5.50;;;3.40;;
5052;SDS011;2545;50.892;5.740;2023-03-19T03:37:07;4.87;;;3.47;;
5052;SDS011;2545;50.892;5.740;2023-03-19T03:39:33;4.53;;;3.80;;
5052;SDS011;2545;50.892;5.740;2023-03-19T03:41:58;4.90;;;4.10;;
5052;SDS011;2545;50.892;5.740;2023-03-19T03:44:23;4.50;;;3.93;;
5052;SDS011;2545;50.892;5.740;2023-03-19T03:46:49;4.20;;;3.67;;
5052;SDS011;2545;50.892;5.740;2023-03-19T03:49:14;6.20;;;4.17;;
5052;SDS011;2545;50.892;5.740;2023-03-19T03:51:39;4.90;;;3.70;;
5052;SDS011;2545;50.892;5.740;2023-03-19T03:54:06;4.90;;;3.70;;
5052;SDS011;2545;50.892;5.740;2023-03-19T03:56:31;6.87;;;4.10;;
5052;SDS011;2545;50.892;5.740;2023-03-19T03:58:57;13.70;;;4.33;;
5052;SDS011;2545;50.892;5.740;2023-03-19T04:01:22;6.03;;;3.87;;
5052;SDS011;2545;50.892;5.740;2023-03-19T04:03:48;5.50;;;4.43;;
5052;SDS011;2545;50.892;5.740;2023-03-19T04:06:13;6.03;;;4.30;;
5052;SDS011;2545;50.892;5.740;2023-03-19T04:08:41;9.33;;;4.20;;
5052;SDS011;2545;50.892;5.740;2023-03-19T04:11:06;9.83;;;4.20;;
5052;SDS011;2545;50.892;5.740;2023-03-19T04:13:32;11.57;;;4.30;;
5052;SDS011;2545;50.892;5.740;2023-03-19T04:16:01;11.47;;;4.37;;
5052;SDS011;2545;50.892;5.740;2023-03-19T04:18:30;8.50;;;4.47;;
5052;SDS011;2545;50.892;5.740;2023-03-19T04:20:56;9.37;;;4.40;;
5052;SDS011;2545;50.892;5.740;2023-03-19T04:23:22;7.10;;;4.57;;
5052;SDS011;2545;50.892;5.740;2023-03-19T04:25:48;6.70;;;3.80;;
5052;SDS011;2545;50.892;5.740;2023-03-19T04:28:13;7.80;;;4.70;;
5052;SDS011;2545;50.892;5.740;2023-03-19T04:30:38;6.07;;;4.20;;
5052;SDS011;2545;50.892;5.740;2023-03-19T04:33:04;7.27;;;4.10;;
5052;SDS011;2545;50.892;5.740;2023-03-19T04:35:29;5.93;;;5.27;;
5052;SDS011;2545;50.892;5.740;2023-03-19T04:37:55;11.43;;;4.77;;
5052;SDS011;2545;50.892;5.740;2023-03-19T04:40:20;5.63;;;4.40;;
5052;SDS011;2545;50.892;5.740;2023-03-19T04:42:46;7.07;;;4.47;;
5052;SDS011;2545;50.892;5.740;2023-03-19T04:45:11;7.07;;;4.70;;
5052;SDS011;2545;50.892;5.740;2023-03-19T04:47:36;7.57;;;5.40;;
5052;SDS011;2545;50.892;5.740;2023-03-19T04:50:02;6.40;;;4.90;;
5052;SDS011;2545;50.892;5.740;2023-03-19T04:52:28;6.63;;;5.00;;
5052;SDS011;2545;50.892;5.740;2023-03-19T04:54:55;7.10;;;4.23;;
5052;SDS011;2545;50.892;5.740;2023-03-19T04:57:20;5.00;;;4.50;;
5052;SDS011;2545;50.892;5.740;2023-03-19T04:59:45;6.43;;;5.03;;
5052;SDS011;2545;50.892;5.740;2023-03-19T05:02:11;8.27;;;5.90;;
5052;SDS011;2545;50.892;5.740;2023-03-19T05:04:37;6.67;;;5.50;;
5052;SDS011;2545;50.892;5.740;2023-03-19T05:07:02;9.70;;;6.20;;
5052;SDS011;2545;50.892;5.740;2023-03-19T05:09:28;8.47;;;4.97;;
5052;SDS011;2545;50.892;5.740;2023-03-19T05:11:54;10.87;;;6.13;;
5052;SDS011;2545;50.892;5.740;2023-03-19T05:14:20;10.20;;;5.63;;
5052;SDS011;2545;50.892;5.740;2023-03-19T05:16:45;7.77;;;5.70;;
5052;SDS011;2545;50.892;5.740;2023-03-19T05:19:11;9.03;;;6.20;;
5052;SDS011;2545;50.892;5.740;2023-03-19T05:21:36;12.80;;;5.50;;
5052;SDS011;2545;50.892;5.740;2023-03-19T05:24:01;11.20;;;5.80;;
5052;SDS011;2545;50.892;5.740;2023-03-19T05:26:27;10.67;;;6.67;;
5052;SDS011;2545;50.892;5.740;2023-03-19T05:28:52;9.77;;;5.60;;
5052;SDS011;2545;50.892;5.740;2023-03-19T05:31:18;13.90;;;6.30;;
5052;SDS011;2545;50.892;5.740;2023-03-19T05:33:43;7.20;;;5.80;;
5052;SDS011;2545;50.892;5.740;2023-03-19T05:36:08;9.37;;;5.23;;
5052;SDS011;2545;50.892;5.740;2023-03-19T05:38:33;13.50;;;4.97;;
5052;SDS011;2545;50.892;5.740;2023-03-19T05:41:02;10.13;;;6.10;;
5052;SDS011;2545;50.892;5.740;2023-03-19T05:43:29;6.90;;;4.90;;
5052;SDS011;2545;50.892;5.740;2023-03-19T05:45:54;7.70;;;4.77;;
5052;SDS011;2545;50.892;5.740;2023-03-19T05:48:20;12.40;;;5.40;;
5052;SDS011;2545;50.892;5.740;2023-03-19T05:50:46;7.00;;;4.97;;
5052;SDS011;2545;50.892;5.740;2023-03-19T05:53:12;8.27;;;4.43;;
5052;SDS011;2545;50.892;5.740;2023-03-19T05:55:37;7.43;;;5.23;;
5052;SDS011;2545;50.892;5.740;2023-03-19T05:58:03;16.90;;;5.40;;
5052;SDS011;2545;50.892;5.740;2023-03-19T06:00:28;7.53;;;5.20;;
5052;SDS011;2545;50.892;5.740;2023-03-19T06:02:53;6.30;;;5.50;;
5052;SDS011;2545;50.892;5.740;2023-03-19T06:05:19;8.50;;;4.80;;
5052;SDS011;2545;50.892;5.740;2023-03-19T06:07:44;6.53;;;4.73;;
5052;SDS011;2545;50.892;5.740;2023-03-19T06:10:10;8.50;;;5.70;;
5052;SDS011;2545;50.892;5.740;2023-03-19T06:12:35;8.93;;;5.33;;
5052;SDS011;2545;50.892;5.740;2023-03-19T06:15:01;6.47;;;4.70;;
5052;SDS011;2545;50.892;5.740;2023-03-19T06:17:26;8.33;;;5.57;;
5052;SDS011;2545;50.892;5.740;2023-03-19T06:19:51;10.50;;;6.00;;
5052;SDS011;2545;50.892;5.740;2023-03-19T06:22:17;18.00;;;6.30;;
5052;SDS011;2545;50.892;5.740;2023-03-19T06:24:42;9.33;;;5.17;;
5052;SDS011;2545;50.892;5.740;2023-03-19T06:27:07;7.03;;;5.03;;
5052;SDS011;2545;50.892;5.740;2023-03-19T06:29:33;21.77;;;6.23;;
5052;SDS011;2545;50.892;5.740;2023-03-19T06:31:59;11.23;;;5.60;;
5052;SDS011;2545;50.892;5.740;2023-03-19T06:34:24;8.50;;;6.20;;
5052;SDS011;2545;50.892;5.740;2023-03-19T06:36:50;14.10;;;6.10;;
5052;SDS011;2545;50.892;5.740;2023-03-19T06:39:17;10.57;;;7.50;;
5052;SDS011;2545;50.892;5.740;2023-03-19T06:41:43;12.87;;;7.03;;
5052;SDS011;2545;50.892;5.740;2023-03-19T06:44:08;10.00;;;6.90;;
5052;SDS011;2545;50.892;5.740;2023-03-19T06:46:34;10.07;;;7.07;;
5052;SDS011;2545;50.892;5.740;2023-03-19T06:48:59;10.20;;;7.50;;
5052;SDS011;2545;50.892;5.740;2023-03-19T06:51:25;10.37;;;6.97;;
5052;SDS011;2545;50.892;5.740;2023-03-19T06:53:51;11.33;;;7.13;;
5052;SDS011;2545;50.892;5.740;2023-03-19T06:56:17;12.43;;;7.20;;
5052;SDS011;2545;50.892;5.740;2023-03-19T06:58:43;15.57;;;8.50;;
5052;SDS011;2545;50.892;5.740;2023-03-19T07:01:08;17.93;;;9.83;;
5052;SDS011;2545;50.892;5.740;2023-03-19T07:03:33;18.00;;;11.97;;
5052;SDS011;2545;50.892;5.740;2023-03-19T07:05:58;24.40;;;13.90;;
5052;SDS011;2545;50.892;5.740;2023-03-19T07:08:24;24.93;;;14.30;;
5052;SDS011;2545;50.892;5.740;2023-03-19T07:10:53;27.07;;;15.40;;
5052;SDS011;2545;50.892;5.740;2023-03-19T07:13:27;24.43;;;14.20;;
5052;SDS011;2545;50.892;5.740;2023-03-19T07:15:52;26.70;;;16.00;;
5052;SDS011;2545;50.892;5.740;2023-03-19T07:18:17;23.53;;;15.83;;
5052;SDS011;2545;50.892;5.740;2023-03-19T07:20:42;22.40;;;14.97;;
5052;SDS011;2545;50.892;5.740;2023-03-19T07:23:08;28.27;;;16.10;;
5052;SDS011;2545;50.892;5.740;2023-03-19T07:25:33;25.43;;;15.00;;
5052;SDS011;2545;50.892;5.740;2023-03-19T07:27:58;19.83;;;14.13;;
5052;SDS011;2545;50.892;5.740;2023-03-19T07:30:24;21.47;;;14.20;;
5052;SDS011;2545;50.892;5.740;2023-03-19T07:32:49;20.20;;;12.97;;
5052;SDS011;2545;50.892;5.740;2023-03-19T07:35:15;21.87;;;11.90;;
5052;SDS011;2545;50.892;5.740;2023-03-19T07:37:40;19.70;;;12.10;;
5052;SDS011;2545;50.892;5.740;2023-03-19T07:40:06;19.03;;;11.90;;
5052;SDS011;2545;50.892;5.740;2023-03-19T07:42:33;12.40;;;10.20;;
5052;SDS011;2545;50.892;5.740;2023-03-19T07:45:00;15.73;;;9.83;;
5052;SDS011;2545;50.892;5.740;2023-03-19T07:47:26;16.30;;;10.47;;
5052;SDS011;2545;50.892;5.740;2023-03-19T07:49:51;16.83;;;9.73;;
5052;SDS011;2545;50.892;5.740;2023-03-19T07:52:17;12.83;;;9.50;;
5052;SDS011;2545;50.892;5.740;2023-03-19T07:54:43;12.80;;;8.87;;
5052;SDS011;2545;50.892;5.740;2023-03-19T07:57:08;11.30;;;8.90;;
5052;SDS011;2545;50.892;5.740;2023-03-19T07:59:33;9.67;;;7.97;;
5052;SDS011;2545;50.892;5.740;2023-03-19T08:01:59;12.43;;;8.63;;
5052;SDS011;2545;50.892;5.740;2023-03-19T08:04:24;10.70;;;7.33;;
5052;SDS011;2545;50.892;5.740;2023-03-19T08:06:49;10.30;;;7.87;;
5052;SDS011;2545;50.892;5.740;2023-03-19T08:09:15;12.13;;;7.20;;
5052;SDS011;2545;50.892;5.740;2023-03-19T08:11:40;16.33;;;7.20;;
5052;SDS011;2545;50.892;5.740;2023-03-19T08:14:06;6.23;;;4.90;;
5052;SDS011;2545;50.892;5.740;2023-03-19T08:16:31;14.10;;;6.50;;
5052;SDS011;2545;50.892;5.740;2023-03-19T08:18:56;7.13;;;5.70;;
5052;SDS011;2545;50.892;5.740;2023-03-19T08:21:22;8.70;;;5.90;;
5052;SDS011;2545;50.892;5.740;2023-03-19T08:23:47;11.73;;;6.10;;
5052;SDS011;2545;50.892;5.740;2023-03-19T08:26:12;9.53;;;6.60;;
5052;SDS011;2545;50.892;5.740;2023-03-19T08:28:38;7.70;;;6.10;;
5052;SDS011;2545;50.892;5.740;2023-03-19T08:31:07;7.93;;;5.67;;
5052;SDS011;2545;50.892;5.740;2023-03-19T08:33:33;8.90;;;5.90;;
5052;SDS011;2545;50.892;5.740;2023-03-19T08:36:05;8.27;;;6.63;;
5052;SDS011;2545;50.892;5.740;2023-03-19T08:38:31;7.97;;;6.30;;
5052;SDS011;2545;50.892;5.740;2023-03-19T08:40:56;10.87;;;6.57;;
5052;SDS011;2545;50.892;5.740;2023-03-19T08:43:26;10.30;;;6.80;;
5052;SDS011;2545;50.892;5.740;2023-03-19T08:45:52;7.53;;;6.73;;
5052;SDS011;2545;50.892;5.740;2023-03-19T08:48:17;6.60;;;6.00;;
5052;SDS011;2545;50.892;5.740;2023-03-19T08:50:42;9.53;;;6.67;;
5052;SDS011;2545;50.892;5.740;2023-03-19T08:53:07;7.53;;;6.67;;
5052;SDS011;2545;50.892;5.740;2023-03-19T08:55:33;7.57;;;6.20;;
5052;SDS011;2545;50.892;5.740;2023-03-19T08:57:58;9.50;;;7.27;;
5052;SDS011;2545;50.892;5.740;2023-03-19T09:00:23;6.33;;;5.73;;
5052;SDS011;2545;50.892;5.740;2023-03-19T09:02:49;6.57;;;5.30;;
5052;SDS011;2545;50.892;5.740;2023-03-19T09:05:14;6.70;;;6.03;;
5052;SDS011;2545;50.892;5.740;2023-03-19T09:07:40;8.97;;;6.67;;
5052;SDS011;2545;50.892;5.740;2023-03-19T09:10:05;7.00;;;5.60;;
5052;SDS011;2545;50.892;5.740;2023-03-19T09:12:31;7.20;;;6.50;;
5052;SDS011;2545;50.892;5.740;2023-03-19T09:14:56;8.30;;;6.33;;
5052;SDS011;2545;50.892;5.740;2023-03-19T09:17:22;7.67;;;5.40;;
5052;SDS011;2545;50.892;5.740;2023-03-19T09:19:47;8.23;;;5.70;;
5052;SDS011;2545;50.892;5.740;2023-03-19T09:22:13;11.50;;;6.57;;
5052;SDS011;2545;50.892;5.740;2023-03-19T09:24:38;7.57;;;6.20;;
5052;SDS011;2545;50.892;5.740;2023-03-19T09:27:03;8.83;;;6.57;;
5052;SDS011;2545;50.892;5.740;2023-03-19T09:29:29;8.60;;;6.00;;
5052;SDS011;2545;50.892;5.740;2023-03-19T09:31:54;8.10;;;6.43;;
5052;SDS011;2545;50.892;5.740;2023-03-19T09:34:20;6.53;;;5.83;;
5052;SDS011;2545;50.892;5.740;2023-03-19T09:36:45;11.03;;;7.13;;
5052;SDS011;2545;50.892;5.740;2023-03-19T09:39:10;12.50;;;7.60;;
5052;SDS011;2545;50.892;5.740;2023-03-19T09:44:14;9.87;;;6.90;;
5052;SDS011;2545;50.892;5.740;2023-03-19T09:47:09;10.10;;;6.83;;
5052;SDS011;2545;50.892;5.740;2023-03-19T09:49:51;6.37;;;5.00;;
5052;SDS011;2545;50.892;5.740;2023-03-19T09:52:23;10.93;;;5.30;;
5052;SDS011;2545;50.892;5.740;2023-03-19T09:54:56;8.20;;;5.30;;
5052;SDS011;2545;50.892;5.740;2023-03-19T09:57:24;7.77;;;5.50;;
5052;SDS011;2545;50.892;5.740;2023-03-19T09:59:53;7.43;;;6.27;;
5052;SDS011;2545;50.892;5.740;2023-03-19T10:05:02;6.90;;;4.70;;
5052;SDS011;2545;50.892;5.740;2023-03-19T10:07:36;6.03;;;4.80;;
5052;SDS011;2545;50.892;5.740;2023-03-19T10:16:12;5.13;;;4.63;;
5052;SDS011;2545;50.892;5.740;2023-03-19T10:18:43;5.97;;;4.57;;
5052;SDS011;2545;50.892;5.740;2023-03-19T10:23:58;4.50;;;4.10;;
5052;SDS011;2545;50.892;5.740;2023-03-19T10:26:29;5.33;;;4.70;;
5052;SDS011;2545;50.892;5.740;2023-03-19T10:37:03;5.23;;;4.43;;
5052;SDS011;2545;50.892;5.740;2023-03-19T10:39:34;4.87;;;3.83;;
5052;SDS011;2545;50.892;5.740;2023-03-19T10:47:50;5.90;;;3.27;;
5052;SDS011;2545;50.892;5.740;2023-03-19T10:50:20;3.90;;;2.87;;
5052;SDS011;2545;50.892;5.740;2023-03-19T10:52:58;5.30;;;3.37;;
5052;SDS011;2545;50.892;5.740;2023-03-19T10:55:29;4.70;;;3.17;;
5052;SDS011;2545;50.892;5.740;2023-03-19T10:58:03;6.93;;;4.07;;
5052;SDS011;2545;50.892;5.740;2023-03-19T11:00:38;3.63;;;3.30;;
5052;SDS011;2545;50.892;5.740;2023-03-19T11:03:03;5.23;;;3.97;;
5052;SDS011;2545;50.892;5.740;2023-03-19T11:05:30;7.90;;;3.80;;
5052;SDS011;2545;50.892;5.740;2023-03-19T11:08:02;4.03;;;3.50;;
5052;SDS011;2545;50.892;5.740;2023-03-19T11:10:30;4.30;;;3.83;;
5052;SDS011;2545;50.892;5.740;2023-03-19T11:12:59;3.80;;;3.30;;
5052;SDS011;2545;50.892;5.740;2023-03-19T11:15:32;7.00;;;3.73;;
5052;SDS011;2545;50.892;5.740;2023-03-19T11:18:13;4.43;;;4.00;;
5052;SDS011;2545;50.892;5.740;2023-03-19T11:20:42;4.20;;;3.80;;
5052;SDS011;2545;50.892;5.740;2023-03-19T11:23:38;4.57;;;3.43;;
5052;SDS011;2545;50.892;5.740;2023-03-19T11:26:06;5.93;;;3.57;;
5052;SDS011;2545;50.892;5.740;2023-03-19T11:28:31;6.53;;;4.37;;
5052;SDS011;2545;50.892;5.740;2023-03-19T11:30:59;6.80;;;4.40;;
5052;SDS011;2545;50.892;5.740;2023-03-19T11:36:27;5.17;;;4.67;;
5052;SDS011;2545;50.892;5.740;2023-03-19T11:44:28;6.07;;;4.73;;
5052;SDS011;2545;50.892;5.740;2023-03-19T11:47:11;6.53;;;4.90;;
5052;SDS011;2545;50.892;5.740;2023-03-19T11:49:47;5.80;;;4.23;;
5052;SDS011;2545;50.892;5.740;2023-03-19T12:00:49;5.53;;;4.07;;
5052;SDS011;2545;50.892;5.740;2023-03-19T12:03:26;4.13;;;3.40;;
5052;SDS011;2545;50.892;5.740;2023-03-19T12:06:36;7.20;;;3.87;;
5052;SDS011;2545;50.892;5.740;2023-03-19T12:09:21;5.70;;;3.60;;
5052;SDS011;2545;50.892;5.740;2023-03-19T12:19:57;6.43;;;4.00;;
5052;SDS011;2545;50.892;5.740;2023-03-19T12:25:22;4.30;;;3.30;;
5052;SDS011;2545;50.892;5.740;2023-03-19T12:34:19;4.53;;;3.00;;
5052;SDS011;2545;50.892;5.740;2023-03-19T12:36:28;6.33;;;4.07;;
5052;SDS011;2545;50.892;5.740;2023-03-19T12:38:58;5.63;;;3.80;;
5052;SDS011;2545;50.892;5.740;2023-03-19T12:41:26;4.87;;;3.60;;
5052;SDS011;2545;50.892;5.740;2023-03-19T12:44:05;5.80;;;3.20;;
5052;SDS011;2545;50.892;5.740;2023-03-19T12:46:41;4.80;;;3.60;;
5052;SDS011;2545;50.892;5.740;2023-03-19T13:00:37;3.87;;;2.70;;
5052;SDS011;2545;50.892;5.740;2023-03-19T13:03:18;5.50;;;3.23;;
5052;SDS011;2545;50.892;5.740;2023-03-19T13:06:08;3.67;;;2.80;;
5052;SDS011;2545;50.892;5.740;2023-03-19T13:11:43;3.97;;;3.13;;
5052;SDS011;2545;50.892;5.740;2023-03-19T13:14:15;4.60;;;3.13;;
5052;SDS011;2545;50.892;5.740;2023-03-19T13:19:44;8.93;;;4.00;;
5052;SDS011;2545;50.892;5.740;2023-03-19T13:22:13;5.37;;;3.80;;
5052;SDS011;2545;50.892;5.740;2023-03-19T13:24:45;8.13;;;3.83;;
5052;SDS011;2545;50.892;5.740;2023-03-19T13:27:22;6.40;;;3.83;;
5052;SDS011;2545;50.892;5.740;2023-03-19T13:29:58;8.53;;;4.40;;
5052;SDS011;2545;50.892;5.740;2023-03-19T13:32:38;6.03;;;4.90;;
5052;SDS011;2545;50.892;5.740;2023-03-19T13:38:03;7.23;;;4.50;;
5052;SDS011;2545;50.892;5.740;2023-03-19T13:40:58;5.13;;;4.10;;
5052;SDS011;2545;50.892;5.740;2023-03-19T13:46:25;10.33;;;4.20;;
5052;SDS011;2545;50.892;5.740;2023-03-19T13:49:35;5.90;;;3.90;;
5052;SDS011;2545;50.892;5.740;2023-03-19T13:54:44;5.40;;;3.90;;
5052;SDS011;2545;50.892;5.740;2023-03-19T13:59:38;3.73;;;2.80;;
5052;SDS011;2545;50.892;5.740;2023-03-19T14:05:06;4.53;;;3.40;;
5052;SDS011;2545;50.892;5.740;2023-03-19T14:07:41;7.03;;;3.67;;
5052;SDS011;2545;50.892;5.740;2023-03-19T14:10:14;6.73;;;3.40;;
5052;SDS011;2545;50.892;5.740;2023-03-19T14:12:46;6.93;;;3.40;;
5052;SDS011;2545;50.892;5.740;2023-03-19T14:15:19;6.67;;;3.73;;
5052;SDS011;2545;50.892;5.740;2023-03-19T14:28:41;9.03;;;3.23;;
5052;SDS011;2545;50.892;5.740;2023-03-19T14:31:19;5.80;;;3.00;;
5052;SDS011;2545;50.892;5.740;2023-03-19T14:34:13;5.67;;;3.00;;
5052;SDS011;2545;50.892;5.740;2023-03-19T14:36:39;3.00;;;2.27;;
5052;SDS011;2545;50.892;5.740;2023-03-19T14:39:31;4.10;;;3.00;;
5052;SDS011;2545;50.892;5.740;2023-03-19T14:53:12;3.47;;;2.40;;
5052;SDS011;2545;50.892;5.740;2023-03-19T14:55:42;4.10;;;3.10;;
5052;SDS011;2545;50.892;5.740;2023-03-19T14:58:13;3.60;;;2.50;;
5052;SDS011;2545;50.892;5.740;2023-03-19T15:00:42;6.73;;;3.53;;
5052;SDS011;2545;50.892;5.740;2023-03-19T15:03:21;3.80;;;3.13;;
5052;SDS011;2545;50.892;5.740;2023-03-19T15:05:57;6.67;;;2.80;;
5052;SDS011;2545;50.892;5.740;2023-03-19T15:08:25;5.30;;;3.00;;
5052;SDS011;2545;50.892;5.740;2023-03-19T15:16:27;3.70;;;1.90;;
5052;SDS011;2545;50.892;5.740;2023-03-19T15:19:01;3.00;;;2.27;;
5052;SDS011;2545;50.892;5.740;2023-03-19T15:21:28;6.20;;;2.90;;
5052;SDS011;2545;50.892;5.740;2023-03-19T15:23:54;3.80;;;2.60;;
5052;SDS011;2545;50.892;5.740;2023-03-19T15:26:30;7.03;;;2.40;;
5052;SDS011;2545;50.892;5.740;2023-03-19T15:28:56;7.13;;;2.80;;
5052;SDS011;2545;50.892;5.740;2023-03-19T15:31:22;5.33;;;2.80;;
5052;SDS011;2545;50.892;5.740;2023-03-19T15:33:48;4.90;;;2.90;;
5052;SDS011;2545;50.892;5.740;2023-03-19T15:36:18;8.13;;;3.10;;
5052;SDS011;2545;50.892;5.740;2023-03-19T15:38:53;6.60;;;3.07;;
5052;SDS011;2545;50.892;5.740;2023-03-19T15:41:22;6.03;;;3.33;;
5052;SDS011;2545;50.892;5.740;2023-03-19T15:43:49;7.53;;;3.10;;
5052;SDS011;2545;50.892;5.740;2023-03-19T15:46:17;30.73;;;3.40;;
5052;SDS011;2545;50.892;5.740;2023-03-19T15:49:09;7.50;;;3.87;;
5052;SDS011;2545;50.892;5.740;2023-03-19T15:51:32;5.70;;;2.80;;
5052;SDS011;2545;50.892;5.740;2023-03-19T15:53:58;10.13;;;3.30;;
5052;SDS011;2545;50.892;5.740;2023-03-19T15:56:25;5.73;;;2.90;;
5052;SDS011;2545;50.892;5.740;2023-03-19T15:58:51;12.40;;;3.93;;
5052;SDS011;2545;50.892;5.740;2023-03-19T16:01:20;12.53;;;4.50;;
5052;SDS011;2545;50.892;5.740;2023-03-19T16:04:04;8.07;;;3.87;;
5052;SDS011;2545;50.892;5.740;2023-03-19T16:06:35;12.57;;;4.30;;
5052;SDS011;2545;50.892;5.740;2023-03-19T16:09:23;8.80;;;5.40;;
5052;SDS011;2545;50.892;5.740;2023-03-19T16:11:51;6.90;;;3.40;;
5052;SDS011;2545;50.892;5.740;2023-03-19T16:17:10;13.10;;;3.50;;
5052;SDS011;2545;50.892;5.740;2023-03-19T16:22:21;5.10;;;2.83;;
5052;SDS011;2545;50.892;5.740;2023-03-19T16:24:48;7.73;;;3.03;;
5052;SDS011;2545;50.892;5.740;2023-03-19T16:27:16;5.03;;;2.77;;
5052;SDS011;2545;50.892;5.740;2023-03-19T16:29:47;4.33;;;2.70;;
5052;SDS011;2545;50.892;5.740;2023-03-19T16:32:20;6.43;;;3.13;;
5052;SDS011;2545;50.892;5.740;2023-03-19T16:34:51;5.87;;;3.30;;
5052;SDS011;2545;50.892;5.740;2023-03-19T16:37:26;3.90;;;3.17;;
5052;SDS011;2545;50.892;5.740;2023-03-19T16:45:26;11.87;;;3.33;;
5052;SDS011;2545;50.892;5.740;2023-03-19T16:47:54;7.83;;;3.40;;
5052;SDS011;2545;50.892;5.740;2023-03-19T16:50:21;15.90;;;5.10;;
5052;SDS011;2545;50.892;5.740;2023-03-19T16:52:54;11.60;;;4.47;;
5052;SDS011;2545;50.892;5.740;2023-03-19T16:55:22;8.30;;;4.40;;
5052;SDS011;2545;50.892;5.740;2023-03-19T16:57:54;17.13;;;4.53;;
5052;SDS011;2545;50.892;5.740;2023-03-19T17:00:22;11.07;;;4.20;;
5052;SDS011;2545;50.892;5.740;2023-03-19T17:02:50;9.43;;;4.57;;
5052;SDS011;2545;50.892;5.740;2023-03-19T17:05:17;17.83;;;5.90;;
5052;SDS011;2545;50.892;5.740;2023-03-19T17:07:42;11.77;;;4.50;;
5052;SDS011;2545;50.892;5.740;2023-03-19T17:10:11;15.07;;;5.10;;
5052;SDS011;2545;50.892;5.740;2023-03-19T17:12:38;7.83;;;4.17;;
5052;SDS011;2545;50.892;5.740;2023-03-19T17:15:04;8.80;;;4.40;;
5052;SDS011;2545;50.892;5.740;2023-03-19T17:17:31;14.80;;;5.00;;
5052;SDS011;2545;50.892;5.740;2023-03-19T17:19:57;7.60;;;4.70;;
5052;SDS011;2545;50.892;5.740;2023-03-19T17:22:22;12.50;;;5.57;;
5052;SDS011;2545;50.892;5.740;2023-03-19T17:24:51;10.30;;;5.03;;
5052;SDS011;2545;50.892;5.740;2023-03-19T17:27:16;16.93;;;5.20;;
5052;SDS011;2545;50.892;5.740;2023-03-19T17:29:42;9.87;;;5.53;;